createdAt,value
2023-03-22T00:02:21.058Z,79.11
2023-03-22T00:06:20.982Z,79.15
2023-03-22T00:10:20.931Z,77.99
2023-03-22T00:14:20.925Z,77.17
2023-03-22T00:18:20.861Z,78.02
2023-03-22T00:22:20.838Z,79.54
2023-03-22T00:26:20.797Z,73.99
2023-03-22T00:30:20.788Z,77.45
2023-03-22T00:34:20.886Z,74.04
2023-03-22T00:38:27.261Z,75.05
2023-03-22T00:42:21.788Z,75.82
2023-03-22T00:46:20.841Z,74.73
2023-03-22T00:50:20.993Z,74.57
2023-03-22T00:54:21.267Z,71.37
2023-03-22T00:58:21.174Z,73.38
2023-03-22T01:02:21.206Z,71.54
2023-03-22T01:06:21.101Z,72.17
2023-03-22T01:10:21.093Z,71.26
2023-03-22T01:14:21.041Z,69.42
2023-03-22T01:18:21.002Z,69.46
2023-03-22T01:22:20.969Z,69.22
2023-03-22T01:26:20.968Z,68.40
2023-03-22T01:30:20.871Z,66.44
2023-03-22T01:34:20.870Z,66.76
2023-03-22T01:38:20.816Z,66.03
2023-03-22T01:42:20.798Z,68.57
2023-03-22T01:46:20.806Z,66.47
2023-03-22T01:50:20.739Z,67.17
2023-03-22T01:54:20.766Z,65.81
2023-03-22T01:58:20.841Z,66.01
2023-03-22T02:02:20.923Z,65.78
2023-03-22T02:06:20.870Z,64.90
2023-03-22T02:10:20.893Z,63.84
2023-03-22T02:14:20.902Z,63.70
2023-03-22T02:18:20.871Z,61.57
2023-03-22T02:22:20.822Z,63.31
2023-03-22T02:26:20.802Z,62.07
2023-03-22T02:30:20.804Z,60.95
2023-03-22T02:34:20.781Z,62.21
2023-03-22T02:38:20.796Z,61.32
2023-03-22T02:42:20.793Z,60.14
2023-03-22T02:46:20.799Z,60.17
2023-03-22T02:50:20.782Z,60.58
2023-03-22T02:54:20.760Z,60.40
2023-03-22T02:58:20.721Z,57.81
2023-03-22T03:02:20.686Z,58.89
2023-03-22T03:06:20.702Z,55.28
2023-03-22T03:10:20.641Z,55.94
2023-03-22T03:14:20.627Z,55.64
2023-03-22T03:18:20.675Z,55.29
2023-03-22T03:22:20.638Z,58.66
2023-03-22T03:26:20.633Z,55.73
2023-03-22T03:30:20.655Z,55.39
2023-03-22T03:34:20.686Z,54.78
2023-03-22T03:38:20.599Z,53.97
2023-03-22T03:42:20.610Z,54.60
2023-03-22T03:46:20.589Z,52.62
2023-03-22T03:50:20.588Z,52.45
2023-03-22T03:54:20.604Z,54.65
2023-03-22T03:58:20.589Z,54.25
2023-03-22T04:02:20.747Z,52.75
2023-03-22T04:06:20.598Z,50.53
2023-03-22T04:10:20.641Z,50.42
2023-03-22T04:14:20.632Z,52.06
2023-03-22T04:18:20.628Z,51.11
2023-03-22T04:22:21.073Z,51.57
2023-03-22T04:26:20.614Z,49.05
2023-03-22T04:30:20.664Z,51.18
2023-03-22T04:34:20.652Z,47.66
2023-03-22T04:38:20.692Z,47.19
2023-03-22T04:42:20.704Z,46.82
2023-03-22T04:46:20.818Z,47.37
2023-03-22T04:50:20.719Z,46.06
2023-03-22T04:54:20.795Z,47.45
2023-03-22T04:58:20.821Z,44.10
2023-03-22T05:02:20.905Z,45.30
2023-03-22T05:06:20.853Z,45.87
2023-03-22T05:10:20.880Z,46.51
2023-03-22T05:14:20.916Z,43.95
2023-03-22T05:18:20.890Z,44.33
2023-03-22T05:22:20.911Z,45.27
2023-03-22T05:26:20.917Z,45.20
2023-03-22T05:30:20.974Z,43.89
2023-03-22T05:34:21.031Z,44.32
2023-03-22T05:38:21.039Z,43.53
2023-03-22T05:42:21.078Z,43.54
2023-03-22T05:46:21.172Z,42.98
2023-03-22T05:50:21.136Z,41.38
2023-03-22T05:54:21.136Z,42.21
2023-03-22T05:58:21.198Z,41.89
2023-03-22T06:02:21.241Z,39.67
2023-03-22T06:06:21.207Z,42.97
2023-03-22T06:10:21.224Z,39.83
2023-03-22T06:14:21.292Z,38.65
2023-03-22T06:18:21.296Z,37.51
2023-03-22T06:22:21.338Z,41.23
2023-03-22T06:26:21.384Z,38.05
2023-03-22T06:30:21.386Z,38.73
2023-03-22T06:34:21.433Z,38.04
2023-03-22T06:38:21.793Z,38.69
2023-03-22T06:42:21.821Z,39.26
2023-03-22T06:46:21.440Z,49.76
2023-03-22T06:50:21.822Z,58.15
2023-03-22T06:54:21.804Z,72.39
2023-03-22T06:58:21.827Z,88.80
2023-03-22T07:02:21.487Z,112.90
2023-03-22T07:06:21.454Z,121.56
2023-03-22T07:10:21.794Z,134.83
2023-03-22T07:14:21.384Z,145.08
2023-03-22T07:18:21.810Z,156.68
2023-03-22T07:22:21.325Z,164.58
2023-03-22T07:26:21.308Z,173.30
2023-03-22T07:30:21.223Z,179.67
2023-03-22T07:34:21.341Z,188.41
2023-03-22T07:38:21.184Z,196.13
2023-03-22T07:42:21.355Z,205.63
2023-03-22T07:46:21.363Z,212.07
2023-03-22T07:50:21.321Z,215.68
2023-03-22T07:54:32.941Z,202.09
2023-03-22T07:58:21.988Z,194.26
2023-03-22T08:02:21.033Z,124.39
2023-03-22T08:06:21.348Z,136.67
2023-03-22T08:10:21.179Z,86.31
2023-03-22T08:14:27.501Z,89.60
2023-03-22T08:18:23.840Z,72.87
2023-03-22T08:22:21.316Z,57.68
2023-03-22T08:26:21.327Z,39.89
2023-03-22T08:30:21.388Z,26.03
2023-03-22T08:34:21.155Z,49.00
2023-03-22T08:38:21.365Z,76.06
2023-03-22T08:42:21.387Z,83.31
2023-03-22T08:46:21.396Z,100.53
2023-03-22T08:50:21.029Z,116.09
2023-03-22T08:54:21.372Z,122.84
2023-03-22T08:58:20.982Z,125.73
2023-03-22T09:02:21.441Z,126.35
2023-03-22T09:06:20.893Z,130.03
2023-03-22T09:10:20.930Z,130.27
2023-03-22T09:14:20.870Z,134.33
2023-03-22T09:18:20.775Z,132.37
2023-03-22T09:22:20.738Z,132.28
2023-03-22T09:26:20.722Z,133.38
2023-03-22T09:30:20.640Z,131.23
2023-03-22T09:34:21.353Z,129.78
2023-03-22T09:38:20.892Z,127.89
2023-03-22T09:42:20.871Z,128.87
2023-03-22T09:46:20.627Z,138.27
2023-03-22T09:50:20.898Z,208.49
2023-03-22T09:54:20.884Z,217.85
2023-03-22T09:58:20.440Z,183.05
2023-03-22T10:02:20.489Z,222.78
2023-03-22T10:06:20.371Z,225.08
2023-03-22T10:10:20.483Z,230.77
2023-03-22T10:14:20.268Z,234.14
2023-03-22T10:18:20.395Z,234.52
2023-03-22T10:22:20.207Z,240.51
2023-03-22T10:26:20.401Z,245.94
2023-03-22T10:30:20.377Z,247.87
2023-03-22T10:34:20.910Z,250.00
2023-03-22T10:38:20.511Z,249.28
2023-03-22T10:42:20.922Z,236.49
2023-03-22T10:46:20.902Z,237.41
2023-03-22T10:50:20.905Z,228.98
2023-03-22T10:54:20.664Z,233.28
2023-03-22T10:58:20.599Z,198.69
2023-03-22T11:02:20.962Z,202.30
2023-03-22T11:06:20.573Z,204.41
2023-03-22T11:10:20.551Z,200.41
2023-03-22T11:14:20.479Z,161.32
2023-03-22T11:18:20.432Z,188.09
2023-03-22T11:22:20.413Z,193.05
2023-03-22T11:26:20.378Z,162.25
2023-03-22T11:30:20.324Z,199.12
2023-03-22T11:34:20.338Z,207.60
2023-03-22T11:38:20.455Z,201.14
2023-03-22T11:42:20.946Z,178.65
2023-03-22T11:46:20.707Z,149.42
2023-03-22T11:50:20.923Z,152.51
2023-03-22T11:54:20.861Z,164.34
2023-03-22T11:58:22.420Z,184.39
2023-03-22T12:02:21.124Z,192.38
2023-03-22T12:06:21.154Z,211.40
2023-03-22T12:10:21.307Z,224.59
2023-03-22T12:14:21.519Z,240.02
2023-03-22T12:18:21.536Z,249.51
2023-03-22T12:22:21.460Z,249.21
2023-03-22T12:26:21.415Z,249.18
2023-03-22T12:30:21.424Z,244.38
2023-03-22T12:34:21.454Z,245.09
2023-03-22T12:38:21.302Z,246.52
2023-03-22T12:42:21.455Z,243.28
2023-03-22T12:46:21.528Z,233.66
2023-03-22T12:50:21.223Z,228.48
2023-03-22T12:54:21.172Z,212.26
2023-03-22T12:58:21.114Z,203.41
2023-03-22T13:02:21.150Z,200.10
2023-03-22T13:06:21.053Z,200.81
2023-03-22T13:10:21.036Z,198.75
2023-03-22T13:14:20.966Z,197.51
2023-03-22T13:18:20.959Z,197.94
2023-03-22T13:22:20.896Z,192.66
2023-03-22T13:26:21.005Z,188.35
2023-03-22T13:30:20.973Z,179.13
2023-03-22T13:34:20.950Z,170.64
2023-03-22T13:38:20.864Z,170.56
2023-03-22T13:42:20.848Z,151.50
2023-03-22T13:46:20.917Z,153.36
2023-03-22T13:50:20.771Z,139.77
2023-03-22T13:54:20.749Z,138.27
2023-03-22T13:58:20.721Z,117.04
2023-03-22T14:02:20.698Z,117.33
2023-03-22T14:06:20.996Z,109.38
2023-03-22T14:10:20.584Z,104.78
2023-03-22T14:14:20.631Z,101.88
2023-03-22T14:18:20.789Z,93.49
2023-03-22T14:47:20.899Z,25.00
2023-03-22T14:51:20.825Z,25.00
2023-03-22T14:55:20.806Z,25.00
2023-03-22T14:59:20.800Z,25.62
2023-03-22T15:03:20.960Z,25.51
2023-03-22T15:07:20.740Z,25.00
2023-03-22T15:11:20.664Z,29.36
2023-03-22T15:15:20.626Z,26.25
2023-03-22T15:19:20.588Z,34.32
2023-03-22T15:23:20.567Z,39.17
2023-03-22T15:27:20.531Z,31.30
2023-03-22T15:31:20.537Z,30.17
2023-03-22T15:35:20.518Z,30.59
2023-03-22T15:39:20.716Z,27.33
2023-03-22T15:43:20.905Z,35.03
2023-03-22T15:47:21.113Z,33.79
2023-03-22T15:51:21.301Z,25.22
2023-03-22T15:55:21.515Z,30.85
2023-03-22T15:59:21.736Z,39.59
2023-03-22T16:03:21.673Z,29.68
2023-03-22T16:07:21.667Z,32.25
2023-03-22T16:11:21.606Z,28.58
2023-03-22T16:15:21.584Z,41.50
2023-03-22T16:19:21.530Z,27.64
2023-03-22T16:23:21.513Z,41.23
2023-03-22T16:27:21.438Z,29.57
2023-03-22T16:31:21.541Z,42.19
2023-03-22T16:35:21.378Z,37.79
2023-03-22T16:39:21.370Z,38.06
2023-03-22T16:43:21.346Z,26.86
2023-03-22T16:47:21.305Z,23.45
2023-03-22T16:51:21.252Z,27.00
2023-03-22T16:55:21.179Z,35.16
2023-03-22T16:59:21.204Z,42.89
2023-03-22T17:03:21.174Z,30.49
2023-03-22T17:07:21.108Z,39.47
2023-03-22T17:11:21.190Z,35.73
2023-03-22T17:15:21.240Z,25.00
2023-03-22T17:19:21.339Z,25.00
2023-03-22T17:23:21.400Z,32.08
2023-03-22T17:27:21.487Z,26.08
2023-03-22T17:31:21.621Z,40.57
2023-03-22T17:35:21.659Z,27.59
2023-03-22T17:40:00.431Z,26.02
2023-03-22T17:43:22.722Z,23.31
2023-03-22T17:51:21.733Z,24.36
2023-03-22T17:55:27.740Z,25.00
2023-03-22T17:59:22.859Z,26.33
2023-03-22T18:03:21.849Z,38.69
2023-03-22T18:07:21.805Z,27.28
2023-03-22T18:11:21.996Z,30.12
2023-03-22T18:15:22.203Z,25.14
2023-03-22T18:19:22.209Z,43.13
2023-03-22T18:23:22.172Z,40.98
2023-03-22T18:27:22.552Z,24.99
2023-03-22T18:31:22.102Z,43.87
2023-03-22T18:35:22.017Z,40.35
2023-03-22T18:39:47.497Z,50.94
2023-03-22T18:43:22.965Z,63.87
2023-03-22T18:47:21.935Z,94.40
2023-03-22T18:51:21.869Z,92.60
2023-03-22T18:55:29.360Z,105.90
2023-03-22T18:59:22.836Z,102.82
2023-03-22T19:03:21.791Z,108.98
2023-03-22T19:07:41.228Z,109.61
2023-03-22T19:11:22.715Z,112.19
2023-03-22T19:15:48.840Z,108.28
2023-03-22T19:19:22.645Z,111.20
2023-03-22T19:23:21.607Z,99.34
2023-03-22T19:27:24.904Z,82.10
2023-03-22T19:31:21.520Z,75.69
2023-03-22T19:35:21.514Z,59.82
2023-03-22T19:39:22.204Z,64.79
2023-03-22T19:43:21.432Z,48.77
2023-03-22T19:47:22.231Z,34.87
2023-03-22T19:51:21.359Z,36.63
2023-03-22T19:55:21.343Z,44.11
2023-03-22T19:59:21.367Z,54.96
2023-03-22T20:03:21.261Z,54.58
2023-03-22T20:07:21.204Z,49.68
2023-03-22T20:11:29.629Z,34.99
2023-03-22T20:15:22.152Z,45.02
2023-03-22T20:19:21.108Z,29.64
2023-03-22T20:23:21.208Z,39.06
2023-03-22T20:27:21.406Z,29.22
2023-03-22T20:31:21.627Z,30.01
2023-03-22T20:35:21.834Z,25.96
2023-03-22T20:39:21.804Z,34.33
2023-03-22T20:43:21.750Z,38.10
2023-03-22T20:47:21.735Z,38.07
2023-03-22T20:51:21.680Z,39.36
2023-03-22T20:55:21.626Z,33.06
2023-03-22T20:59:21.579Z,30.07
2023-03-22T21:03:21.565Z,42.35
2023-03-22T21:07:21.520Z,74.51
2023-03-22T21:11:21.517Z,101.07
2023-03-22T21:15:21.460Z,116.31
2023-03-22T21:19:21.865Z,113.43
2023-03-22T21:23:21.402Z,114.33
2023-03-22T21:27:21.380Z,124.81
2023-03-22T21:31:21.344Z,108.62
2023-03-22T21:35:21.294Z,114.85
2023-03-22T21:39:21.255Z,136.58
2023-03-22T21:43:21.210Z,151.18
2023-03-22T21:47:21.207Z,168.08
2023-03-22T21:51:21.149Z,173.44
2023-03-22T21:55:21.109Z,170.48
2023-03-22T21:59:21.090Z,168.06
2023-03-22T22:03:21.038Z,169.64
2023-03-22T22:07:21.007Z,159.82
2023-03-22T22:11:20.964Z,128.51
2023-03-22T22:15:20.960Z,134.12
2023-03-22T22:19:21.021Z,136.04
2023-03-22T22:23:21.074Z,134.66
2023-03-22T22:27:21.174Z,149.29
2023-03-22T22:31:21.233Z,159.27
2023-03-22T22:35:21.323Z,117.97
2023-03-22T22:39:21.389Z,122.87
2023-03-22T22:43:21.483Z,127.94
2023-03-22T22:47:21.646Z,114.30
2023-03-22T22:51:21.720Z,111.03
2023-03-22T22:55:21.861Z,100.42
2023-03-22T22:59:21.960Z,98.39
2023-03-22T23:03:22.086Z,100.18
2023-03-22T23:07:22.208Z,109.17
2023-03-22T23:11:22.370Z,116.17
2023-03-22T23:15:27.318Z,120.64
2023-03-22T23:19:23.492Z,123.54
2023-03-22T23:23:22.411Z,125.50
2023-03-22T23:27:22.397Z,126.88
2023-03-22T23:31:22.423Z,132.30
2023-03-22T23:35:22.676Z,116.31
2023-03-22T23:39:22.751Z,70.76
2023-03-22T23:43:22.883Z,54.48
2023-03-22T23:47:23.072Z,42.53
2023-03-22T23:51:23.164Z,45.47
2023-03-22T23:55:23.321Z,47.63
2023-03-22T23:59:23.441Z,70.75
